createdAt,value
2023-02-01T00:04:34.115Z,4.20
2023-02-01T00:09:36.464Z,5.43
2023-02-01T00:14:40.700Z,4.90
2023-02-01T00:19:43.880Z,5.20
2023-02-01T00:24:46.273Z,5.47
2023-02-01T00:29:49.077Z,6.13
2023-02-01T00:34:51.455Z,4.93
2023-02-01T00:39:56.913Z,6.30
2023-02-01T00:44:59.204Z,7.60
2023-02-01T00:50:01.466Z,6.30
2023-02-01T00:55:05.896Z,5.77
2023-02-01T01:00:08.931Z,5.87
2023-02-01T01:05:11.990Z,5.73
2023-02-01T01:10:14.263Z,6.17
2023-02-01T01:15:16.672Z,7.00
2023-02-01T01:20:19.610Z,5.90
2023-02-01T01:25:22.464Z,6.30
2023-02-01T01:30:25.122Z,7.20
2023-02-01T01:35:27.458Z,5.87
2023-02-01T01:40:31.572Z,5.73
2023-02-01T01:45:36.924Z,6.93
2023-02-01T01:50:42.727Z,5.73
2023-02-01T01:55:45.929Z,5.50
2023-02-01T02:00:49.138Z,6.30
2023-02-01T02:05:52.517Z,5.90
2023-02-01T02:11:01.068Z,5.80
2023-02-01T02:16:40.865Z,5.93
2023-02-01T02:22:12.039Z,6.32
2023-02-01T02:28:06.808Z,5.40
2023-02-01T02:33:34.163Z,5.97
2023-02-01T02:38:51.119Z,5.50
2023-02-01T02:49:41.805Z,5.78
2023-02-01T02:54:47.797Z,5.57
2023-02-01T03:00:10.297Z,5.97
2023-02-01T03:05:13.048Z,5.97
2023-02-01T03:10:24.665Z,5.77
2023-02-01T03:15:36.348Z,5.77
2023-02-01T03:20:40.886Z,4.50
2023-02-01T03:25:43.529Z,7.13
2023-02-01T03:30:45.943Z,5.37
2023-02-01T03:36:11.196Z,5.70
2023-02-01T03:41:25.177Z,5.37
2023-02-01T03:46:34.729Z,5.07
2023-02-01T03:51:40.344Z,5.33
2023-02-01T03:56:47.772Z,4.80
2023-02-01T04:01:50.459Z,5.13
2023-02-01T04:06:53.059Z,5.17
2023-02-01T04:11:56.324Z,4.87
2023-02-01T04:16:58.617Z,6.13
2023-02-01T04:22:00.961Z,7.00
2023-02-01T04:27:03.957Z,6.60
2023-02-01T04:32:06.397Z,5.90
2023-02-01T04:37:08.911Z,6.93
2023-02-01T04:42:11.289Z,6.90
2023-02-01T04:47:13.757Z,5.93
2023-02-01T04:52:16.055Z,7.00
2023-02-01T04:57:18.439Z,6.73
2023-02-01T05:02:20.721Z,5.40
2023-02-01T05:07:23.096Z,7.00
2023-02-01T05:12:43.774Z,6.93
2023-02-01T05:17:46.128Z,7.07
2023-02-01T05:22:48.450Z,6.00
2023-02-01T05:27:50.783Z,6.93
2023-02-01T05:32:54.382Z,6.50
2023-02-01T05:37:56.956Z,6.90
2023-02-01T05:42:59.188Z,7.47
2023-02-01T05:48:01.533Z,7.07
2023-02-01T05:53:03.778Z,7.13
2023-02-01T05:58:06.684Z,7.60
2023-02-01T06:03:09.315Z,7.17
2023-02-01T06:08:11.635Z,7.90
2023-02-01T06:13:13.909Z,7.73
2023-02-01T06:18:16.958Z,7.20
2023-02-01T06:23:19.241Z,7.53
2023-02-01T06:28:21.494Z,7.17
2023-02-01T06:33:23.797Z,7.80
2023-02-01T06:38:28.155Z,8.87
2023-02-01T06:43:30.798Z,7.77
2023-02-01T06:48:33.569Z,9.30
2023-02-01T06:53:35.823Z,8.13
2023-02-01T06:58:40.167Z,8.57
2023-02-01T07:03:42.728Z,7.77
2023-02-01T07:08:45.255Z,8.83
2023-02-01T07:13:47.564Z,8.97
2023-02-01T07:18:51.715Z,8.53
2023-02-01T07:23:53.995Z,7.70
2023-02-01T07:28:56.300Z,10.40
2023-02-01T07:33:59.568Z,9.70
2023-02-01T07:39:01.968Z,8.40
2023-02-01T07:44:04.493Z,7.93
2023-02-01T07:49:07.171Z,9.17
2023-02-01T07:54:09.362Z,8.70
2023-02-01T07:59:13.021Z,9.20
2023-02-01T08:04:15.307Z,8.57
2023-02-01T08:09:17.654Z,8.70
2023-02-01T08:14:19.935Z,9.93
2023-02-01T08:19:22.193Z,8.27
2023-02-01T08:24:24.428Z,8.50
2023-02-01T08:29:26.687Z,8.23
2023-02-01T08:34:29.024Z,9.00
2023-02-01T08:39:31.266Z,8.07
2023-02-01T08:44:33.544Z,7.57
2023-02-01T08:49:35.724Z,8.20
2023-02-01T08:54:38.117Z,7.43
2023-02-01T08:59:40.343Z,7.30
2023-02-01T09:04:42.901Z,8.00
2023-02-01T09:09:46.035Z,7.70
2023-02-01T09:14:48.352Z,8.00
2023-02-01T09:19:50.563Z,7.67
2023-02-01T09:24:55.269Z,6.90
2023-02-01T09:29:57.536Z,6.63
2023-02-01T09:34:59.755Z,6.70
2023-02-01T09:40:02.108Z,7.73
2023-02-01T09:45:23.723Z,6.40
2023-02-01T09:50:39.384Z,7.97
2023-02-01T09:55:44.888Z,8.50
2023-02-01T10:00:58.992Z,8.83
2023-02-01T10:06:32.248Z,7.07
2023-02-01T10:12:18.787Z,8.97
2023-02-01T10:17:39.706Z,7.60
2023-02-01T10:23:11.401Z,8.63
2023-02-01T10:28:16.804Z,8.97
2023-02-01T10:33:29.178Z,10.00
2023-02-01T10:38:32.289Z,9.13
2023-02-01T10:43:35.221Z,9.33
2023-02-01T10:48:38.099Z,6.50
2023-02-01T10:54:00.035Z,7.80
2023-02-01T10:59:05.075Z,7.97
2023-02-01T11:04:11.755Z,7.80
2023-02-01T11:09:25.099Z,8.63
2023-02-01T11:14:34.015Z,8.73
2023-02-01T11:19:36.570Z,6.38
2023-02-01T11:24:40.375Z,6.13
2023-02-01T11:29:44.984Z,7.17
2023-02-01T11:34:48.595Z,6.70
2023-02-01T11:39:59.370Z,6.63
2023-02-01T11:45:21.801Z,6.50
2023-02-01T11:51:07.959Z,7.20
2023-02-01T11:56:18.439Z,7.63
2023-02-01T12:01:42.828Z,7.87
2023-02-01T12:06:54.451Z,7.70
2023-02-01T12:12:03.704Z,7.20
2023-02-01T12:17:18.056Z,7.13
2023-02-01T12:22:30.783Z,8.17
2023-02-01T12:27:58.227Z,9.10
2023-02-01T12:33:19.266Z,6.33
2023-02-01T12:38:47.016Z,7.30
2023-02-01T12:44:08.065Z,7.00
2023-02-01T12:49:29.825Z,7.33
2023-02-01T12:54:50.918Z,7.73
2023-02-01T13:00:16.627Z,8.77
2023-02-01T13:05:25.426Z,6.73
2023-02-01T13:10:45.166Z,8.03
2023-02-01T13:16:04.430Z,8.52
2023-02-01T13:21:34.124Z,7.85
2023-02-01T13:26:36.409Z,7.85
2023-02-01T13:32:00.172Z,7.77
2023-02-01T13:37:24.112Z,8.90
2023-02-01T13:42:30.050Z,7.40
2023-02-01T13:47:40.390Z,8.13
2023-02-01T13:52:45.442Z,7.80
2023-02-01T13:57:49.512Z,9.03
2023-02-01T14:03:16.975Z,6.17
2023-02-01T14:08:25.924Z,6.73
2023-02-01T14:13:40.869Z,9.37
2023-02-01T14:18:43.167Z,8.03
2023-02-01T14:23:47.419Z,6.90
2023-02-01T14:29:12.711Z,7.77
2023-02-01T14:34:44.476Z,6.17
2023-02-01T14:39:46.597Z,6.80
2023-02-01T14:44:59.304Z,6.43
2023-02-01T14:50:08.506Z,6.87
2023-02-01T14:55:20.629Z,6.00
2023-02-01T15:00:26.808Z,6.50
2023-02-01T15:05:35.531Z,8.70
2023-02-01T15:10:48.163Z,8.00
2023-02-01T15:16:16.128Z,6.80
2023-02-01T15:21:30.320Z,6.50
2023-02-01T15:26:35.296Z,7.13
2023-02-01T15:31:40.332Z,7.40
2023-02-01T15:36:53.521Z,6.83
2023-02-01T15:42:12.012Z,7.13
2023-02-01T15:47:19.395Z,6.30
2023-02-01T15:52:41.935Z,6.43
2023-02-01T15:57:44.860Z,6.87
2023-02-01T16:03:07.895Z,6.77
2023-02-01T16:08:21.359Z,6.07
2023-02-01T16:13:23.771Z,6.40
2023-02-01T16:18:26.059Z,6.47
2023-02-01T16:23:31.577Z,6.40
2023-02-01T16:28:41.388Z,6.87
2023-02-01T16:33:43.757Z,8.20
2023-02-01T16:38:50.756Z,6.43
2023-02-01T16:43:56.672Z,6.63
2023-02-01T16:49:01.419Z,6.57
2023-02-01T16:54:04.013Z,7.00
2023-02-01T16:59:06.924Z,7.27
2023-02-01T17:04:12.421Z,6.87
2023-02-01T17:09:14.910Z,7.90
2023-02-01T17:14:19.519Z,6.93
2023-02-01T17:19:26.516Z,6.70
2023-02-01T17:24:42.675Z,6.70
2023-02-01T17:29:49.451Z,6.53
2023-02-01T17:34:51.772Z,5.63
2023-02-01T17:39:57.467Z,6.60
2023-02-01T17:45:03.085Z,6.37
2023-02-01T17:50:09.753Z,5.73
2023-02-01T17:55:22.906Z,7.60
2023-02-01T18:00:26.334Z,6.90
2023-02-01T18:05:41.943Z,7.13
2023-02-01T18:10:45.124Z,7.27
2023-02-01T18:15:47.873Z,7.83
2023-02-01T18:20:50.453Z,5.90
2023-02-01T18:25:53.467Z,7.20
2023-02-01T18:30:56.071Z,6.00
2023-02-01T18:35:58.948Z,7.23
2023-02-01T18:41:01.699Z,6.43
2023-02-01T18:46:04.176Z,6.03
2023-02-01T18:51:07.100Z,5.60
2023-02-01T18:56:17.341Z,6.97
2023-02-01T19:01:22.004Z,5.57
2023-02-01T19:06:24.404Z,5.17
2023-02-01T19:11:26.784Z,5.73
2023-02-01T19:16:29.383Z,5.50
2023-02-01T19:21:33.216Z,5.33
2023-02-01T19:26:35.705Z,4.70
2023-02-01T19:31:38.047Z,5.57
2023-02-01T19:36:42.770Z,5.97
2023-02-01T19:41:45.124Z,5.60
2023-02-01T19:46:47.669Z,6.10
2023-02-01T19:51:50.079Z,5.20
2023-02-01T19:56:52.573Z,4.93
2023-02-01T20:01:54.265Z,5.23
2023-02-01T20:06:56.736Z,5.93
2023-02-01T20:11:58.992Z,5.77
2023-02-01T20:17:01.367Z,5.80
2023-02-01T20:22:03.711Z,5.37
2023-02-01T20:27:07.721Z,5.97
2023-02-01T20:32:10.180Z,6.97
2023-02-01T20:37:12.607Z,6.13
2023-02-01T20:42:14.946Z,5.43
2023-02-01T20:47:17.244Z,6.27
2023-02-01T20:52:19.631Z,6.87
2023-02-01T20:57:21.962Z,6.23
2023-02-01T21:02:24.944Z,6.13
2023-02-01T21:07:28.579Z,7.53
2023-02-01T21:12:31.009Z,6.63
2023-02-01T21:17:33.842Z,7.33
2023-02-01T21:22:37.877Z,8.47
2023-02-01T21:27:40.269Z,7.80
2023-02-01T21:32:43.107Z,7.30
2023-02-01T21:37:45.434Z,9.03
2023-02-01T21:42:47.701Z,8.00
2023-02-01T21:47:50.094Z,7.40
2023-02-01T21:52:52.406Z,8.83
2023-02-01T21:57:54.741Z,7.40
2023-02-01T22:02:57.158Z,7.70
2023-02-01T22:07:59.432Z,8.33
2023-02-01T22:13:01.677Z,7.27
2023-02-01T22:18:04.060Z,8.07
2023-02-01T22:23:06.447Z,8.20
2023-02-01T22:28:32.696Z,8.53
2023-02-01T22:33:31.205Z,7.97
2023-02-01T22:38:35.571Z,8.73
2023-02-01T22:43:38.031Z,9.63
2023-02-01T22:48:41.811Z,9.00
2023-02-01T22:53:44.088Z,8.03
2023-02-01T22:59:00.558Z,9.90
2023-02-01T23:04:07.637Z,7.67
2023-02-01T23:09:19.053Z,8.27
2023-02-01T23:14:21.717Z,9.03
2023-02-01T23:19:23.897Z,7.83
2023-02-01T23:24:26.351Z,7.80
2023-02-01T23:29:28.728Z,9.07
2023-02-01T23:34:31.107Z,8.77
2023-02-01T23:39:33.611Z,8.43
2023-02-01T23:44:36.862Z,7.50
2023-02-01T23:49:39.307Z,8.30
2023-02-01T23:54:41.613Z,7.23
2023-02-01T23:59:43.981Z,6.73
